| time (UTC) | temp F | wind direction | speed MPH | gust MPH | rain 1hr in | rain 24hr in | rain mn in | humidity % | barometer mb |
| 20260508033916 | 41 | 176 | 0.0 | 0.0 | 0.00 | 0.00 | 0.00 | 70 | |
| 20260508033321 | 41 | 175 | 0.0 | 0.0 | 0.00 | 0.00 | 0.00 | 68 | |
| 20260508032734 | 41 | 176 | 0.0 | 0.0 | 0.00 | 0.00 | 0.00 | 73 | |
| 20260508032147 | 41 | 174 | 0.0 | 0.0 | 0.00 | 0.00 | 0.00 | 72 | |
| 20260508031526 | 41 | 173 | 0.0 | 0.0 | 0.00 | 0.00 | 0.00 | 75 | |
| 20260508030931 | 42 | 182 | 0.0 | 0.0 | 0.00 | 0.00 | 0.00 | 75 | |
| 20260508030311 | 42 | 195 | 0.0 | 0.0 | 0.00 | 0.00 | 0.00 | 72 | |
| 20260508025719 | 42 | 177 | 0.0 | 0.0 | 0.00 | 0.00 | 0.00 | 72 | |
| 20260508025114 | 43 | 178 | 0.0 | 0.0 | 0.00 | 0.00 | 0.00 | 72 | |
| 20260508024525 | 44 | 183 | 0.0 | 0.0 | 0.00 | 0.00 | 0.00 | 68 | |
| 20260508023946 | 44 | 173 | 0.0 | 0.0 | 0.00 | 0.00 | 0.00 | 67 | |
| 20260508023341 | 45 | 180 | 0.0 | 0.0 | 0.00 | 0.00 | 0.00 | 70 | |
| 20260508022723 | 43 | 183 | 1.0 | 4.0 | 0.00 | 0.00 | 0.00 | 63 | |
| 20260508021515 | 44 | 166 | 0.0 | 0.0 | 0.00 | 0.00 | 0.00 | 69 | |
| 20260508020945 | 44 | 230 | 0.0 | 0.0 | 0.00 | 0.00 | 0.00 | 68 | |
| 20260508020349 | 44 | 176 | 0.0 | 1.0 | 0.00 | 0.00 | 0.00 | 70 | |
| 20260508015738 | 44 | 179 | 0.0 | 0.0 | 0.00 | 0.00 | 0.00 | 68 | |
| 20260508015145 | 45 | 180 | 0.0 | 0.0 | 0.00 | 0.00 | 0.00 | 66 | |
| 20260508014517 | 46 | 180 | 0.0 | 0.0 | 0.00 | 0.00 | 0.00 | 65 | |
| 20260508012725 | 45 | 166 | 0.0 | 1.0 | 0.00 | 0.00 | 0.00 | 67 | |
| 20260508011528 | 46 | 174 | 0.0 | 0.0 | 0.00 | 0.00 | 0.00 | 65 | |
| 20260508010935 | 46 | 177 | 0.0 | 0.0 | 0.00 | 0.00 | 0.00 | 66 | |
| 20260508010349 | 47 | 178 | 0.0 | 0.0 | 0.00 | 0.00 | 0.00 | 66 | |
| 20260508005736 | 47 | 178 | 0.0 | 0.0 | 0.00 | 0.00 | 0.00 | 65 | |
| 20260508003908 | 48 | 181 | 0.0 | 0.0 | 0.00 | 0.00 | 0.00 | 65 | |
| 20260508003340 | 49 | 139 | 2.0 | 3.0 | 0.00 | 0.00 | 0.00 | 59 | |
| 20260508002734 | 50 | 174 | 1.0 | 1.0 | 0.00 | 0.00 | 0.00 | 60 | |
| 20260508002110 | 50 | 176 | 0.0 | 0.0 | 0.00 | 0.00 | 0.00 | 56 | |
| 20260508001532 | 50 | 177 | 2.0 | 6.0 | 0.00 | 0.00 | 0.00 | 54 | |
| 20260508000949 | 51 | 181 | 0.0 | 1.0 | 0.00 | 0.00 | 0.00 | 55 | |
| 20260508000335 | 51 | 170 | 0.0 | 2.0 | 0.00 | 0.00 | 0.00 | 56 | |
| 20260507235747 | 51 | 115 | 2.0 | 2.0 | 0.00 | 0.00 | 0.00 | 55 | |
| 20260507235119 | 52 | 153 | 2.0 | 3.0 | 0.00 | 0.00 | 0.00 | 53 | |
| 20260507234551 | 52 | 226 | 0.0 | 3.0 | 0.00 | 0.00 | 0.00 | 52 | |
| 20260507233938 | 52 | 151 | 3.0 | 4.0 | 0.00 | 0.00 | 0.00 | 51 | |
| 20260507233347 | 53 | 2 | 4.0 | 4.0 | 0.00 | 0.00 | 0.00 | 49 | |
| 20260507231535 | 56 | 189 | 1.0 | 2.0 | 0.00 | 0.00 | 0.00 | 52 | |
| 20260507225744 | 55 | 21 | 3.0 | 4.0 | 0.00 | 0.00 | 0.00 | 50 | |
| 20260507225120 | 55 | 204 | 1.0 | 3.0 | 0.00 | 0.00 | 0.00 | 48 | |
| 20260507224527 | 56 | 188 | 2.0 | 6.0 | 0.00 | 0.00 | 0.00 | 48 | |
| 20260507223918 | 55 | 198 | 1.0 | 6.0 | 0.00 | 0.00 | 0.00 | 47 | |
| 20260507223338 | 56 | 315 | 5.0 | 8.0 | 0.00 | 0.00 | 0.00 | 48 | |
| 20260507222719 | 56 | 200 | 3.0 | 4.0 | 0.00 | 0.00 | 0.00 | 48 | |
| 20260507221516 | 56 | 193 | 1.0 | 10.0 | 0.00 | 0.00 | 0.00 | 48 | |
| 20260507220312 | 56 | 180 | 0.0 | 2.0 | 0.00 | 0.00 | 0.00 | 51 | |
| 20260507215738 | 56 | 355 | 4.0 | 7.0 | 0.00 | 0.00 | 0.00 | 50 | |
| 20260507215144 | 56 | 35 | 2.0 | 4.0 | 0.00 | 0.00 | 0.00 | 51 | |
| 20260507213944 | 56 | 171 | 1.0 | 3.0 | 0.00 | 0.00 | 0.00 | 51 | |
| 20260507212737 | 57 | 284 | 2.0 | 7.0 | 0.00 | 0.00 | 0.00 | 50 | |
| 20260507211532 | 57 | 204 | 0.0 | 3.0 | 0.00 | 0.00 | 0.00 | 50 | |
| 20260507210928 | 57 | 186 | 1.0 | 6.0 | 0.00 | 0.00 | 0.00 | 50 | |
| 20260507210344 | 57 | 307 | 3.0 | 7.0 | 0.00 | 0.00 | 0.00 | 51 | |
| 20260507204547 | 57 | 141 | 2.0 | 8.0 | 0.00 | 0.00 | 0.00 | 51 | |
| 20260507202737 | 56 | 345 | 3.0 | 6.0 | 0.00 | 0.00 | 0.00 | 50 | |
| 20260507202152 | 57 | 283 | 5.0 | 7.0 | 0.00 | 0.00 | 0.00 | 50 | |
| 20260507201538 | 59 | 351 | 3.0 | 4.0 | 0.00 | 0.00 | 0.00 | 50 | |
| 20260507200938 | 59 | 155 | 0.0 | 6.0 | 0.00 | 0.00 | 0.00 | 53 | |
| 20260507195752 | 57 | 163 | 2.0 | 4.0 | 0.00 | 0.00 | 0.00 | 52 | |
| 20260507195151 | 58 | 172 | 2.0 | 4.0 | 0.00 | 0.00 | 0.00 | 52 | |
| 20260507194514 | 59 | 148 | 3.0 | 7.0 | 0.00 | 0.00 | 0.00 | 50 | |
| 20260507193951 | 60 | 225 | 2.0 | 2.0 | 0.00 | 0.00 | 0.00 | 50 | |
| 20260507192732 | 58 | 180 | 1.0 | 3.0 | 0.00 | 0.00 | 0.00 | 52 | |
| 20260507192146 | 60 | 177 | 1.0 | 4.0 | 0.00 | 0.00 | 0.00 | 51 | |
| 20260507191535 | 59 | 3 | 4.0 | 7.0 | 0.00 | 0.00 | 0.00 | 49 | |
| 20260507190936 | 59 | 192 | 2.0 | 2.0 | 0.00 | 0.00 | 0.00 | 53 | |
| 20260507185724 | 59 | 171 | 0.0 | 4.0 | 0.00 | 0.00 | 0.00 | 53 | |
| 20260507185150 | 58 | 348 | 3.0 | 4.0 | 0.00 | 0.00 | 0.00 | 54 | |
| 20260507184549 | 58 | 170 | 0.0 | 3.0 | 0.00 | 0.00 | 0.00 | 54 | |
| 20260507183952 | 58 | 155 | 1.0 | 3.0 | 0.00 | 0.00 | 0.00 | 54 | |
| 20260507183308 | 59 | 358 | 4.0 | 7.0 | 0.00 | 0.00 | 0.00 | 54 | |
| 20260507182714 | 58 | 214 | 2.0 | 3.0 | 0.00 | 0.00 | 0.00 | 55 | |
| 20260507182150 | 57 | 169 | 0.0 | 3.0 | 0.00 | 0.00 | 0.00 | 57 | |
| 20260507181510 | 56 | 337 | 2.0 | 7.0 | 0.00 | 0.00 | 0.00 | 58 | |
| 20260507180928 | 57 | 204 | 1.0 | 4.0 | 0.00 | 0.00 | 0.00 | 59 | |
| 20260507180324 | 58 | 203 | 0.0 | 6.0 | 0.00 | 0.00 | 0.00 | 62 | |
| 20260507174520 | 57 | 199 | 0.0 | 3.0 | 0.00 | 0.00 | 0.00 | 60 | |
| 20260507173945 | 58 | 270 | 2.0 | 3.0 | 0.00 | 0.00 | 0.00 | 62 | |
| 20260507172732 | 57 | 161 | 1.0 | 3.0 | 0.00 | 0.00 | 0.00 | 61 | |
| 20260507172129 | 56 | 177 | 4.0 | 4.0 | 0.00 | 0.00 | 0.00 | 63 | |
| 20260507170911 | 55 | 168 | 1.0 | 3.0 | 0.00 | 0.00 | 0.00 | 63 | |
| 20260507170321 | 55 | 335 | 1.0 | 2.0 | 0.00 | 0.00 | 0.00 | 66 | |
| 20260507165750 | 54 | 191 | 2.0 | 3.0 | 0.00 | 0.00 | 0.00 | 66 | |
| 20260507165135 | 54 | 195 | 0.0 | 3.0 | 0.00 | 0.00 | 0.00 | 67 | |
| 20260507163923 | 54 | 212 | 1.0 | 2.0 | 0.00 | 0.00 | 0.00 | 68 | |
| 20260507162722 | 53 | 185 | 0.0 | 0.0 | 0.00 | 0.00 | 0.00 | 70 | |
| 20260507162152 | 53 | 350 | 4.0 | 4.0 | 0.00 | 0.00 | 0.00 | 69 | |
| 20260507161555 | 53 | 190 | 2.0 | 3.0 | 0.00 | 0.00 | 0.00 | 69 | |
| 20260507160923 | 52 | 173 | 0.0 | 3.0 | 0.00 | 0.00 | 0.00 | 72 | |
| 20260507160346 | 51 | 204 | 0.0 | 3.0 | 0.00 | 0.00 | 0.00 | 73 | |
| 20260507155731 | 50 | 179 | 0.0 | 0.0 | 0.00 | 0.00 | 0.00 | 72 | |
| 20260507155123 | 51 | 341 | 2.0 | 3.0 | 0.00 | 0.00 | 0.00 | 72 | |
| 20260507154519 | 51 | 187 | 1.0 | 4.0 | 0.00 | 0.00 | 0.00 | 70 | |
| 20260507153911 | 51 | 195 | 1.0 | 3.0 | 0.00 | 0.00 | 0.00 | 73 | |
| 20260507153316 | 51 | 195 | 1.0 | 3.0 | 0.00 | 0.00 | 0.00 | 73 | |
| 20260507152750 | 51 | 192 | 0.0 | 2.0 | 0.00 | 0.00 | 0.00 | 74 | |
| 20260507151534 | 50 | 179 | 0.0 | 2.0 | 0.00 | 0.00 | 0.00 | 73 | |
| 20260507150347 | 50 | 173 | 0.0 | 0.0 | 0.00 | 0.00 | 0.00 | 73 | |
| 20260507145715 | 49 | 187 | 0.0 | 0.0 | 0.00 | 0.00 | 0.00 | 76 | |
| 20260507145111 | 50 | 180 | 0.0 | 3.0 | 0.00 | 0.00 | 0.00 | 74 | |
| 20260507144515 | 49 | 182 | 0.0 | 0.0 | 0.00 | 0.00 | 0.00 | 75 | |
| 20260507143939 | 49 | 179 | 0.0 | 2.0 | 0.00 | 0.00 | 0.00 | 76 | |
| 20260507143320 | 49 | 182 | 0.0 | 0.0 | 0.00 | 0.00 | 0.00 | 74 | |
| 20260507142123 | 48 | 185 | 0.0 | 1.0 | 0.00 | 0.00 | 0.00 | 77 | |
| 20260507141518 | 48 | 179 | 0.0 | 2.0 | 0.00 | 0.00 | 0.00 | 76 | |
| 20260507140926 | 48 | 182 | 0.0 | 2.0 | 0.00 | 0.00 | 0.00 | 79 | |
| 20260507140342 | 47 | 172 | 1.0 | 2.0 | 0.00 | 0.00 | 0.00 | 80 | |
| 20260507135144 | 46 | 180 | 0.0 | 1.0 | 0.00 | 0.00 | 0.00 | 80 | |
| 20260507134519 | 46 | 185 | 0.0 | 1.0 | 0.00 | 0.00 | 0.00 | 80 | |
| 20260507133319 | 45 | 205 | 2.0 | 2.0 | 0.00 | 0.00 | 0.00 | 82 | |
| 20260507132743 | 45 | 171 | 0.0 | 0.0 | 0.00 | 0.00 | 0.00 | 82 | |
| 20260507132122 | 44 | 188 | 0.0 | 1.0 | 0.00 | 0.00 | 0.00 | 82 | |
| 20260507130911 | 44 | 172 | 1.0 | 2.0 | 0.00 | 0.00 | 0.00 | 83 | |
| 20260507130312 | 44 | 177 | 0.0 | 1.0 | 0.00 | 0.00 | 0.00 | 85 | |
| 20260507124550 | 44 | 174 | 0.0 | 1.0 | 0.00 | 0.00 | 0.00 | 90 | |
| 20260507123943 | 44 | 177 | 0.0 | 0.0 | 0.00 | 0.00 | 0.00 | 91 | |
| 20260507123343 | 44 | 181 | 0.0 | 0.0 | 0.00 | 0.00 | 0.00 | 91 | |
| 20260507122748 | 44 | 178 | 0.0 | 0.0 | 0.00 | 0.00 | 0.00 | 91 | |
| 20260507122127 | 45 | 180 | 0.0 | 0.0 | 0.00 | 0.00 | 0.00 | 92 | |
| 20260507120340 | 45 | 175 | 1.0 | 2.0 | 0.00 | 0.00 | 0.00 | 91 | |
| 20260507115712 | 45 | 179 | 0.0 | 1.0 | 0.00 | 0.00 | 0.00 | 93 | |
| 20260507115147 | 45 | 170 | 1.0 | 2.0 | 0.00 | 0.00 | 0.00 | 93 | |
| 20260507114527 | 45 | 178 | 0.0 | 0.0 | 0.00 | 0.00 | 0.00 | 93 | |
| 20260507113916 | 45 | 178 | 0.0 | 0.0 | 0.00 | 0.00 | 0.00 | 93 | |
| 20260507113326 | 45 | 176 | 0.0 | 0.0 | 0.00 | 0.00 | 0.00 | 93 | |
| 20260507112752 | 46 | 162 | 0.0 | 0.0 | 0.00 | 0.00 | 0.00 | 93 | |
| 20260507111513 | 46 | 166 | 0.0 | 0.0 | 0.00 | 0.00 | 0.00 | 94 | |
| 20260507110940 | 46 | 179 | 0.0 | 0.0 | 0.00 | 0.00 | 0.00 | 94 | |
| 20260507110320 | 46 | 179 | 0.0 | 0.0 | 0.00 | 0.00 | 0.00 | 94 | |
| 20260507105718 | 46 | 172 | 0.0 | 0.0 | 0.00 | 0.00 | 0.00 | 94 | |
| 20260507105143 | 46 | 180 | 0.0 | 0.0 | 0.00 | 0.00 | 0.00 | 95 | |
| 20260507104546 | 46 | 180 | 0.0 | 0.0 | 0.00 | 0.00 | 0.00 | 95 | |
| 20260507103320 | 46 | 180 | 0.0 | 0.0 | 0.00 | 0.00 | 0.00 | 95 | |
| 20260507102729 | 46 | 178 | 0.0 | 0.0 | 0.00 | 0.00 | 0.00 | 95 | |
| 20260507101525 | 46 | 180 | 0.0 | 0.0 | 0.00 | 0.00 | 0.00 | 95 | |
| 20260507100912 | 46 | 180 | 0.0 | 0.0 | 0.00 | 0.00 | 0.00 | 94 | |
| 20260507100332 | 46 | 180 | 0.0 | 0.0 | 0.00 | 0.00 | 0.00 | 94 | |
| 20260507095740 | 47 | 175 | 0.0 | 0.0 | 0.00 | 0.00 | 0.00 | 94 | |
| 20260507095110 | 47 | 181 | 0.0 | 0.0 | 0.00 | 0.00 | 0.00 | 94 | |
| 20260507093930 | 47 | 178 | 0.0 | 1.0 | 0.00 | 0.00 | 0.00 | 94 | |
| 20260507093344 | 47 | 179 | 0.0 | 0.0 | 0.00 | 0.00 | 0.00 | 94 | |
| 20260507092744 | 47 | 181 | 0.0 | 0.0 | 0.00 | 0.00 | 0.00 | 94 | |
| 20260507092130 | 47 | 179 | 0.0 | 0.0 | 0.00 | 0.00 | 0.00 | 95 | |
| 20260507091510 | 47 | 180 | 0.0 | 1.0 | 0.00 | 0.00 | 0.00 | 95 | |
| 20260507090940 | 47 | 181 | 0.0 | 0.0 | 0.00 | 0.00 | 0.00 | 95 | |
| 20260507090318 | 47 | 182 | 0.0 | 0.0 | 0.00 | 0.00 | 0.00 | 95 | |
| 20260507085715 | 47 | 179 | 0.0 | 0.0 | 0.00 | 0.00 | 0.00 | 95 | |
| 20260507085109 | 47 | 180 | 0.0 | 0.0 | 0.00 | 0.00 | 0.00 | 95 | |
| 20260507084541 | 47 | 182 | 0.0 | 0.0 | 0.00 | 0.00 | 0.00 | 95 | |
| 20260507083925 | 47 | 181 | 0.0 | 0.0 | 0.00 | 0.00 | 0.00 | 95 | |
| 20260507083327 | 47 | 182 | 0.0 | 0.0 | 0.00 | 0.00 | 0.00 | 95 | |
| 20260507082121 | 47 | 178 | 0.0 | 0.0 | 0.00 | 0.00 | 0.00 | 94 | |
| 20260507081530 | 47 | 178 | 0.0 | 0.0 | 0.00 | 0.00 | 0.00 | 94 | |
| 20260507080917 | 47 | 180 | 0.0 | 0.0 | 0.00 | 0.00 | 0.00 | 94 | |
| 20260507080337 | 47 | 178 | 0.0 | 0.0 | 0.00 | 0.00 | 0.00 | 94 | |
| 20260507075716 | 47 | 179 | 0.0 | 0.0 | 0.00 | 0.00 | 0.00 | 94 | |
| 20260507075136 | 47 | 180 | 0.0 | 0.0 | 0.00 | 0.00 | 0.00 | 94 | |
| 20260507074541 | 48 | 180 | 0.0 | 0.0 | 0.00 | 0.00 | 0.00 | 94 | |
| 20260507073952 | 48 | 179 | 0.0 | 0.0 | 0.00 | 0.00 | 0.00 | 93 | |
| 20260507073329 | 48 | 179 | 0.0 | 0.0 | 0.00 | 0.00 | 0.00 | 93 | |
| 20260507072748 | 48 | 178 | 0.0 | 0.0 | 0.00 | 0.00 | 0.00 | 93 | |
| 20260507072116 | 48 | 162 | 0.0 | 0.0 | 0.00 | 0.00 | 0.00 | 93 | |
| 20260507071537 | 48 | 177 | 0.0 | 0.0 | 0.00 | 0.00 | 0.00 | 93 | |
| 20260507070310 | 48 | 172 | 0.0 | 0.0 | 0.00 | 0.00 | 0.00 | 93 | |
| 20260507065753 | 49 | 171 | 0.0 | 0.0 | 0.00 | 0.00 | 0.00 | 93 | |
| 20260507064514 | 49 | 179 | 0.0 | 0.0 | 0.00 | 0.00 | 0.00 | 93 | |
| 20260507063913 | 49 | 181 | 0.0 | 0.0 | 0.00 | 0.00 | 0.00 | 94 | |
| 20260507063347 | 49 | 178 | 0.0 | 0.0 | 0.00 | 0.00 | 0.00 | 94 | |
| 20260507062716 | 49 | 182 | 0.0 | 0.0 | 0.00 | 0.00 | 0.00 | 93 | |
| 20260507062130 | 50 | 181 | 0.0 | 0.0 | 0.00 | 0.00 | 0.00 | 93 | |
| 20260507061517 | 50 | 180 | 0.0 | 0.0 | 0.00 | 0.00 | 0.00 | 93 | |
| 20260507060928 | 50 | 182 | 0.0 | 1.0 | 0.00 | 0.00 | 0.00 | 92 | |
| 20260507060317 | 50 | 171 | 0.0 | 0.0 | 0.00 | 0.00 | 0.00 | 92 | |
| 20260507055734 | 50 | 135 | 0.0 | 1.0 | 0.00 | 0.00 | 0.00 | 92 | |
| 20260507055110 | 50 | 174 | 1.0 | 2.0 | 0.00 | 0.00 | 0.00 | 92 | |
| 20260507053926 | 50 | 178 | 1.0 | 2.0 | 0.00 | 0.00 | 0.00 | 93 | |
| 20260507052712 | 51 | 172 | 0.0 | 3.0 | 0.00 | 0.00 | 0.00 | 93 | |
| 20260507052148 | 51 | 189 | 0.0 | 1.0 | 0.00 | 0.00 | 0.00 | 92 | |
| 20260507051524 | 51 | 179 | 0.0 | 0.0 | 0.00 | 0.00 | 0.00 | 93 | |
| 20260507050911 | 52 | 121 | 0.0 | 0.0 | 0.00 | 0.00 | 0.00 | 94 | |
| 20260507050342 | 52 | 181 | 0.0 | 0.0 | 0.00 | 0.00 | 0.00 | 93 | |
| 20260507045750 | 52 | 180 | 0.0 | 0.0 | 0.00 | 0.00 | 0.00 | 93 | |
| 20260507045142 | 52 | 185 | 1.0 | 1.0 | 0.00 | 0.00 | 0.00 | 94 | |
| 20260507044539 | 52 | 178 | 2.0 | 2.0 | 0.00 | 0.00 | 0.00 | 95 | |
| 20260507043954 | 52 | 168 | 0.0 | 0.0 | 0.00 | 0.00 | 0.00 | 97 | |
| 20260507041541 | 53 | 181 | 0.0 | 0.0 | 0.00 | 0.00 | 0.00 | 97 | |
| 20260507040932 | 53 | 181 | 0.0 | 0.0 | 0.00 | 0.00 | 0.00 | 97 | |
| 20260507040332 | 53 | 181 | 0.0 | 0.0 | 0.00 | 0.00 | 0.00 | 97 | |
| 20260507035713 | 53 | 180 | 0.0 | 0.0 | 0.00 | 0.00 | 0.00 | 97 | |
| 20260507035145 | 53 | 180 | 0.0 | 0.0 | 0.00 | 0.00 | 0.00 | 97 | |
| 20260507034518 | 53 | 178 | 0.0 | 0.0 | 0.00 | 0.00 | 0.00 | 97 |